Time;durP1;ratioP1;P1;durP2;ratioP2;P2;SDS_P1;SDS_P2;PMS_P1;PMS_P2;Temp;Humidity;BMP_temperature;BMP_pressure;BME280_temperature;BME280_humidity;BME280_pressure;Samples;Min_cycle;Max_cycle;Signal;HPM_P1;HPM_P2
2024/02/18 00:01:35;;;;;;;77.35;33.35;;;8.20;99.90;;;;;;7606459;19;20030;-75
2024/02/18 00:04:08;;;;;;;54.22;28.92;;;8.10;99.90;;;;;;7595178;19;20014;-75
2024/02/18 00:06:41;;;;;;;49.38;27.95;;;8.00;99.90;;;;;;7593269;19;21072;-74
2024/02/18 00:09:13;;;;;;;51.53;28.30;;;8.00;99.90;;;;;;7593887;19;20026;-75
2024/02/18 00:11:46;;;;;;;67.95;31.10;;;7.90;99.90;;;;;;7584002;19;20019;-75
2024/02/18 00:14:18;;;;;;;50.97;26.98;;;7.90;99.90;;;;;;7594273;19;20014;-75
2024/02/18 00:16:51;;;;;;;47.15;24.30;;;7.80;99.90;;;;;;7576982;19;20026;-77
2024/02/18 00:19:23;;;;;;;52.88;27.15;;;7.90;99.90;;;;;;7601453;19;20153;-76
2024/02/18 00:21:57;;;;;;;47.42;24.90;;;7.90;99.90;;;;;;7583685;19;20022;-77
2024/02/18 00:24:29;;;;;;;57.72;30.75;;;7.90;99.90;;;;;;7601904;19;20025;-76
2024/02/18 00:27:02;;;;;;;50.17;26.58;;;8.00;99.90;;;;;;7606251;19;20026;-76
2024/02/18 00:29:35;;;;;;;53.75;25.77;;;8.00;99.90;;;;;;7603459;19;20041;-76
2024/02/18 00:32:07;;;;;;;49.20;26.45;;;8.00;99.90;;;;;;7606268;19;20014;-74
2024/02/18 00:34:39;;;;;;;48.20;25.27;;;8.00;99.90;;;;;;7606915;19;20018;-74
2024/02/18 00:37:12;;;;;;;50.00;27.15;;;8.00;99.90;;;;;;7606568;19;20014;-76
2024/02/18 00:39:44;;;;;;;54.08;27.10;;;8.00;99.90;;;;;;7599302;19;20484;-75
2024/02/18 00:42:16;;;;;;;46.55;24.38;;;8.00;99.90;;;;;;7610390;19;20206;-75
2024/02/18 00:44:49;;;;;;;59.58;28.25;;;8.00;99.90;;;;;;7604211;19;20683;-75
2024/02/18 00:47:21;;;;;;;47.30;23.73;;;8.00;99.90;;;;;;7607884;19;20018;-75
2024/02/18 00:49:54;;;;;;;43.03;23.50;;;8.00;99.90;;;;;;7601681;19;20022;-75
2024/02/18 00:52:26;;;;;;;43.42;23.13;;;8.00;99.90;;;;;;7605663;19;20025;-74
2024/02/18 00:54:58;;;;;;;46.92;24.90;;;8.00;99.90;;;;;;7603794;19;20529;-75
2024/02/18 00:57:31;;;;;;;50.22;25.58;;;8.00;99.90;;;;;;7602187;19;20078;-75
2024/02/18 01:00:04;;;;;;;43.83;23.95;;;7.90;99.90;;;;;;7602105;19;20018;-74
2024/02/18 01:02:37;;;;;;;;;;;8.00;99.90;;;;;;7604431;19;20034;-75
2024/02/18 01:05:09;;;;;;;63.47;29.45;;;8.10;99.90;;;;;;7602910;19;20385;-75
2024/02/18 01:07:41;;;;;;;59.22;28.38;;;8.00;99.90;;;;;;7601710;19;20053;-75
2024/02/18 01:10:14;;;;;;;63.10;28.55;;;7.90;99.90;;;;;;7593904;19;20015;-76
2024/02/18 01:12:47;;;;;;;48.83;24.42;;;7.80;99.90;;;;;;7591974;19;20014;-77
2024/02/18 01:15:19;;;;;;;49.83;26.23;;;7.90;99.90;;;;;;7596175;19;20010;-77
2024/02/18 01:17:52;;;;;;;47.70;24.70;;;8.00;99.90;;;;;;7593187;19;20026;-76
2024/02/18 01:20:24;;;;;;;50.20;24.63;;;8.00;99.90;;;;;;7581134;19;20714;-76
2024/02/18 01:22:57;;;;;;;39.45;21.88;;;8.00;99.90;;;;;;7592020;19;20093;-76
2024/02/18 01:25:29;;;;;;;42.97;23.15;;;8.10;99.90;;;;;;7603553;19;20895;-77
2024/02/18 01:28:02;;;;;;;71.60;29.55;;;8.10;99.90;;;;;;7602793;19;20105;-76
2024/02/18 01:30:35;;;;;;;42.53;22.40;;;8.00;99.90;;;;;;7603516;19;20018;-76
2024/02/18 01:33:07;;;;;;;49.60;25.48;;;8.00;99.90;;;;;;7606813;19;20018;-76
2024/02/18 01:35:39;;;;;;;50.17;25.92;;;8.10;99.90;;;;;;7596513;19;20018;-76
2024/02/18 01:38:11;;;;;;;50.45;26.27;;;8.10;99.90;;;;;;7594653;19;20022;-75
2024/02/18 01:40:44;;;;;;;74.63;32.08;;;8.00;99.90;;;;;;7598625;19;20010;-76
2024/02/18 01:43:17;;;;;;;48.00;25.50;;;8.00;99.90;;;;;;7595608;19;20013;-76
2024/02/18 01:45:50;;;;;;;65.13;30.02;;;8.00;99.90;;;;;;7591917;19;20422;-76
2024/02/18 01:48:23;;;;;;;52.13;25.98;;;8.00;99.90;;;;;;7596883;19;20056;-76
2024/02/18 01:50:56;;;;;;;55.42;27.15;;;8.00;99.90;;;;;;7587925;19;20018;-76
2024/02/18 01:53:29;;;;;;;54.47;27.17;;;8.10;99.90;;;;;;7596456;19;20799;-76
2024/02/18 01:56:02;;;;;;;48.67;25.50;;;8.20;99.90;;;;;;7602641;19;20015;-76
2024/02/18 01:58:35;;;;;;;69.60;30.63;;;8.20;99.90;;;;;;7592677;19;20018;-76
2024/02/18 02:01:07;;;;;;;52.13;28.02;;;8.20;99.90;;;;;;7602008;19;21206;-75
2024/02/18 02:03:40;;;;;;;47.15;24.88;;;8.00;99.90;;;;;;7589429;19;20015;-75
2024/02/18 02:06:15;;;;;;;55.22;26.77;;;8.10;99.90;;;;;;7603347;19;20022;-75
2024/02/18 02:08:48;;;;;;;47.80;24.98;;;8.00;99.90;;;;;;7599303;19;20023;-76
2024/02/18 02:11:20;;;;;;;46.80;24.40;;;8.00;99.90;;;;;;7607782;19;20054;-76
2024/02/18 02:13:53;;;;;;;49.80;24.75;;;8.00;99.90;;;;;;7602918;19;20026;-76
2024/02/18 02:16:25;;;;;;;65.18;28.88;;;8.00;99.90;;;;;;7602783;19;20018;-76
2024/02/18 02:18:57;;;;;;;54.13;25.07;;;8.00;99.90;;;;;;7593171;19;20106;-76
2024/02/18 02:21:30;;;;;;;64.15;28.83;;;8.00;99.90;;;;;;7608065;19;20283;-75
2024/02/18 02:24:02;;;;;;;53.40;25.63;;;8.00;99.90;;;;;;7599879;19;20090;-75
2024/02/18 02:26:41;;;;;;;53.75;25.20;;;8.00;99.90;;;;;;7602606;19;20041;-75
2024/02/18 02:29:16;;;;;;;52.00;25.08;;;8.00;99.90;;;;;;7606312;19;20015;-75
2024/02/18 02:31:50;;;;;;;47.50;23.52;;;8.00;99.90;;;;;;7581130;19;20203;-75
2024/02/18 02:34:22;;;;;;;48.13;23.35;;;8.00;99.90;;;;;;7602802;19;20049;-75
2024/02/18 02:36:54;;;;;;;49.90;23.60;;;8.00;99.90;;;;;;7598592;19;21773;-74
2024/02/18 02:39:27;;;;;;;47.17;24.70;;;8.10;99.90;;;;;;7599491;19;20110;-74
2024/02/18 02:42:00;;;;;;;47.13;24.48;;;8.00;99.90;;;;;;7603378;19;20015;-74
2024/02/18 02:44:32;;;;;;;62.47;27.90;;;8.00;99.90;;;;;;7605682;19;20073;-75
2024/02/18 02:47:04;;;;;;;65.03;28.10;;;8.00;99.90;;;;;;7600317;19;20018;-74
2024/02/18 02:49:36;;;;;;;50.95;24.65;;;8.00;99.90;;;;;;7593261;19;20026;-75
2024/02/18 02:52:09;;;;;;;53.47;25.25;;;8.00;99.90;;;;;;7600849;19;20022;-74
2024/02/18 02:54:41;;;;;;;51.75;24.65;;;8.00;99.90;;;;;;7596643;19;20010;-75
2024/02/18 02:57:13;;;;;;;53.30;24.30;;;7.90;99.90;;;;;;7597442;19;20110;-75
2024/02/18 02:59:46;;;;;;;45.90;22.35;;;7.90;99.90;;;;;;7606058;19;20026;-74
2024/02/18 03:02:20;;;;;;;42.30;22.05;;;7.90;99.90;;;;;;7602732;19;20040;-75
2024/02/18 03:04:52;;;;;;;43.75;22.88;;;7.90;99.90;;;;;;7593142;19;20125;-75
2024/02/18 03:07:25;;;;;;;44.40;22.88;;;7.80;99.90;;;;;;7600899;19;20030;-74
2024/02/18 03:09:57;;;;;;;37.22;19.45;;;7.80;99.90;;;;;;7601968;19;20014;-74
2024/02/18 03:12:30;;;;;;;41.65;20.90;;;7.80;99.90;;;;;;7604937;19;20022;-74
2024/02/18 03:15:03;;;;;;;40.50;21.52;;;7.80;99.90;;;;;;7600331;19;20029;-74
2024/02/18 03:17:36;;;;;;;39.38;20.50;;;7.70;99.90;;;;;;7594258;19;20038;-75
2024/02/18 03:20:11;;;;;;;41.13;20.93;;;7.70;99.90;;;;;;7596711;19;20097;-74
2024/02/18 03:22:44;;;;;;;34.47;18.95;;;7.70;99.90;;;;;;7594608;19;20292;-74
2024/02/18 03:25:17;;;;;;;38.53;20.08;;;7.60;99.90;;;;;;7602467;19;20030;-74
2024/02/18 03:27:49;;;;;;;36.42;20.30;;;7.60;99.90;;;;;;7598141;19;20050;-74
2024/02/18 03:30:21;;;;;;;44.15;19.42;;;7.60;99.90;;;;;;7605183;19;20022;-76
2024/02/18 03:32:54;;;;;;;37.63;20.05;;;7.60;99.90;;;;;;7608647;19;20097;-76
2024/02/18 03:35:29;;;;;;;47.28;21.88;;;7.60;99.90;;;;;;7595423;19;20026;-76
2024/02/18 03:38:01;;;;;;;40.13;20.08;;;7.50;99.90;;;;;;7598851;19;20045;-75
2024/02/18 03:40:33;;;;;;;40.42;20.15;;;7.40;99.90;;;;;;7610324;19;20043;-77
2024/02/18 03:43:05;;;;;;;49.83;23.20;;;7.40;99.90;;;;;;7607613;19;20014;-77
2024/02/18 03:45:38;;;;;;;40.28;20.85;;;7.40;99.90;;;;;;7611763;19;21076;-76
2024/02/18 03:48:10;;;;;;;41.25;20.52;;;7.40;99.90;;;;;;7603443;19;20028;-76
2024/02/18 03:50:42;;;;;;;37.15;19.48;;;7.40;99.90;;;;;;7595906;19;20339;-76
2024/02/18 03:53:14;;;;;;;34.55;19.70;;;7.40;99.90;;;;;;7611079;19;20041;-76
2024/02/18 03:55:47;;;;;;;37.83;18.58;;;7.40;99.90;;;;;;7603378;19;20044;-76
2024/02/18 03:58:19;;;;;;;40.55;20.25;;;7.40;99.90;;;;;;7606606;19;20048;-76
2024/02/18 04:00:51;;;;;;;34.08;18.15;;;7.30;99.90;;;;;;7609302;19;20052;-76
2024/02/18 04:03:24;;;;;;;37.95;19.10;;;7.30;99.90;;;;;;7607761;19;20477;-77
2024/02/18 04:05:56;;;;;;;34.70;18.65;;;7.20;99.90;;;;;;7609597;19;20043;-76
2024/02/18 04:08:28;;;;;;;57.58;22.83;;;7.20;99.90;;;;;;7606768;19;20018;-75
2024/02/18 04:11:01;;;;;;;48.05;21.42;;;7.10;99.90;;;;;;7611672;19;20029;-76
2024/02/18 04:13:33;;;;;;;36.03;19.53;;;7.00;99.90;;;;;;7613330;19;20116;-76
2024/02/18 04:16:07;;;;;;;42.90;21.67;;;7.00;99.90;;;;;;7602786;19;20018;-76
2024/02/18 04:18:39;;;;;;;;;;;7.00;99.90;;;;;;7586238;19;20029;-75
2024/02/18 04:21:11;;;;;;;35.03;17.52;;;7.10;99.90;;;;;;7603472;19;19929;-76
2024/02/18 04:23:44;;;;;;;31.80;17.25;;;7.00;99.90;;;;;;7605933;19;20053;-76
2024/02/18 04:26:17;;;;;;;33.13;17.70;;;6.90;99.90;;;;;;7604104;19;20015;-75
2024/02/18 04:28:49;;;;;;;34.57;17.03;;;6.90;99.90;;;;;;7603867;19;20021;-76
2024/02/18 04:31:21;;;;;;;44.25;20.88;;;6.90;99.90;;;;;;7603621;19;20021;-76
2024/02/18 04:33:53;;;;;;;31.88;17.70;;;6.90;99.90;;;;;;7602322;19;20489;-76
2024/02/18 04:36:26;;;;;;;49.55;22.95;;;6.90;99.90;;;;;;7602342;19;20018;-76
2024/02/18 04:38:59;;;;;;;43.30;20.38;;;6.80;99.90;;;;;;7596439;19;20022;-76
2024/02/18 04:41:31;;;;;;;49.30;23.08;;;6.80;99.90;;;;;;7583275;19;20082;-74
2024/02/18 04:44:04;;;;;;;45.75;22.52;;;6.90;99.90;;;;;;7595896;19;20018;-75
2024/02/18 04:46:36;;;;;;;52.58;22.85;;;6.80;99.90;;;;;;7585975;19;20725;-75
2024/02/18 04:49:08;;;;;;;36.75;19.00;;;6.80;99.90;;;;;;7538673;19;20754;-73
2024/02/18 04:51:41;;;;;;;51.75;23.20;;;6.80;99.90;;;;;;7599626;19;20074;-76
2024/02/18 04:54:14;;;;;;;61.83;25.17;;;6.80;99.90;;;;;;7593356;19;20015;-74
2024/02/18 04:56:46;;;;;;;38.90;20.45;;;6.80;99.90;;;;;;7594004;19;20021;-74
2024/02/18 04:59:18;;;;;;;62.47;24.92;;;6.80;99.90;;;;;;7591977;19;20689;-73
2024/02/18 05:01:50;;;;;;;35.22;18.27;;;6.90;99.90;;;;;;7597186;19;20021;-74
2024/02/18 05:04:29;;;;;;;34.97;18.23;;;6.80;99.90;;;;;;7569010;19;20026;-75
2024/02/18 05:07:01;;;;;;;62.05;25.60;;;6.80;99.90;;;;;;7590122;19;20025;-75
2024/02/18 05:09:38;;;;;;;39.95;20.15;;;6.80;99.90;;;;;;7593980;19;20025;-76
2024/02/18 05:12:10;;;;;;;32.03;17.95;;;6.70;99.90;;;;;;7588016;19;20014;-75
2024/02/18 05:14:43;;;;;;;40.78;20.00;;;6.70;99.90;;;;;;7595123;19;20026;-76
2024/02/18 05:17:15;;;;;;;55.63;23.43;;;6.70;99.90;;;;;;7572191;19;20098;-75
2024/02/18 05:19:49;;;;;;;51.80;23.13;;;6.70;99.90;;;;;;7592886;19;20033;-74
2024/02/18 05:22:21;;;;;;;34.42;17.90;;;6.60;99.90;;;;;;7596973;19;20078;-74
2024/02/18 05:24:53;;;;;;;34.83;18.52;;;6.50;99.90;;;;;;7591979;19;20516;-74
2024/02/18 05:27:26;;;;;;;33.17;18.33;;;6.60;99.90;;;;;;7575133;19;20014;-74
2024/02/18 05:29:58;;;;;;;48.50;21.70;;;6.60;99.90;;;;;;7597073;19;20456;-74
2024/02/18 05:32:30;;;;;;;38.33;19.02;;;6.70;99.90;;;;;;7603429;19;20022;-75
2024/02/18 05:35:03;;;;;;;37.20;17.58;;;6.60;99.90;;;;;;7605055;19;20050;-74
2024/02/18 05:37:38;;;;;;;38.20;19.05;;;6.60;99.90;;;;;;7603308;19;20018;-74
2024/02/18 05:40:11;;;;;;;60.45;25.25;;;6.60;99.90;;;;;;7602347;19;22756;-74
2024/02/18 05:42:44;;;;;;;37.70;18.83;;;6.40;99.90;;;;;;7601518;19;20590;-76
2024/02/18 05:45:21;;;;;;;33.00;16.92;;;6.40;99.90;;;;;;7598779;19;20015;-74
2024/02/18 05:47:54;;;;;;;36.75;18.67;;;6.50;99.90;;;;;;7604661;19;20480;-76
2024/02/18 05:50:27;;;;;;;45.88;20.52;;;6.40;99.90;;;;;;7603827;19;20029;-73
2024/02/18 05:52:59;;;;;;;32.25;17.73;;;6.40;99.90;;;;;;7603371;19;20018;-73
2024/02/18 05:55:31;;;;;;;44.13;21.30;;;6.30;99.90;;;;;;7604602;19;20022;-74
2024/02/18 05:58:03;;;;;;;44.13;19.85;;;6.10;99.90;;;;;;7601581;19;20035;-76
2024/02/18 06:00:35;;;;;;;48.85;22.40;;;6.20;99.90;;;;;;7599058;19;20022;-73
2024/02/18 06:03:08;;;;;;;39.13;19.63;;;6.20;99.90;;;;;;7604984;19;20053;-76
2024/02/18 06:05:41;;;;;;;43.75;19.67;;;6.10;99.90;;;;;;7604157;19;20019;-73
2024/02/18 06:08:13;;;;;;;33.70;18.40;;;6.00;99.90;;;;;;7601744;19;22790;-76
2024/02/18 06:10:46;;;;;;;42.92;18.45;;;6.10;99.90;;;;;;7605749;19;20295;-76
2024/02/18 06:13:20;;;;;;;32.33;17.55;;;6.10;99.90;;;;;;7603802;19;20010;-76
2024/02/18 06:15:52;;;;;;;31.42;16.42;;;6.00;99.90;;;;;;7586764;19;20022;-76
2024/02/18 06:18:25;;;;;;;39.27;18.43;;;5.90;99.90;;;;;;7594730;19;20010;-76
2024/02/18 06:20:58;;;;;;;34.10;18.65;;;5.80;99.90;;;;;;7600184;19;20018;-74
2024/02/18 06:23:31;;;;;;;38.65;18.23;;;5.80;99.90;;;;;;7602968;19;20887;-76
2024/02/18 06:26:03;;;;;;;47.13;21.05;;;5.80;99.90;;;;;;7604968;19;20025;-76
2024/02/18 06:28:36;;;;;;;30.58;16.45;;;5.80;99.90;;;;;;7601068;19;20011;-75
2024/02/18 06:31:08;;;;;;;31.70;16.33;;;5.80;99.90;;;;;;7604195;19;20029;-76
2024/02/18 06:33:46;;;;;;;40.72;16.42;;;5.80;99.90;;;;;;7607903;19;20019;-76
2024/02/18 06:36:18;;;;;;;256.00;31.80;;;5.80;99.90;;;;;;7601999;19;20018;-73
2024/02/18 06:38:50;;;;;;;93.43;24.05;;;5.80;99.90;;;;;;7598616;19;20014;-76
2024/02/18 06:41:23;;;;;;;54.67;16.35;;;5.70;99.90;;;;;;7600610;19;20019;-76
2024/02/18 06:43:55;;;;;;;280.45;35.47;;;5.70;99.90;;;;;;7604985;19;20014;-74
2024/02/18 06:46:27;;;;;;;82.80;20.45;;;5.70;99.90;;;;;;7599754;19;20022;-73
2024/02/18 06:48:59;;;;;;;102.03;19.85;;;5.70;99.90;;;;;;7598422;19;20476;-76
2024/02/18 06:51:32;;;;;;;76.57;18.48;;;5.70;99.90;;;;;;7603582;19;20014;-74
2024/02/18 06:54:04;;;;;;;71.03;19.10;;;5.80;99.90;;;;;;7602978;19;20052;-73
2024/02/18 06:56:37;;;;;;;87.97;19.27;;;5.80;99.90;;;;;;7591126;19;20019;-76
2024/02/18 06:59:09;;;;;;;58.22;17.02;;;5.90;99.90;;;;;;7602262;19;20010;-74
2024/02/18 07:01:42;;;;;;;29.65;15.85;;;5.80;99.90;;;;;;7605515;19;20029;-74
2024/02/18 07:04:14;;;;;;;30.42;17.23;;;5.90;99.90;;;;;;7599648;19;20086;-74
2024/02/18 07:06:46;;;;;;;31.58;17.05;;;6.00;99.90;;;;;;7608045;19;20018;-74
2024/02/18 07:09:19;;;;;;;36.97;18.67;;;5.90;99.90;;;;;;7605715;19;20041;-74
2024/02/18 07:11:51;;;;;;;28.65;16.00;;;5.90;99.90;;;;;;7605376;19;20045;-76
2024/02/18 07:14:23;;;;;;;42.30;20.13;;;6.00;99.90;;;;;;7606316;19;21104;-73
2024/02/18 07:16:55;;;;;;;31.42;16.52;;;6.00;99.90;;;;;;7612659;19;20014;-75
2024/02/18 07:19:27;;;;;;;29.08;16.85;;;6.10;99.90;;;;;;7602989;19;20110;-74
2024/02/18 07:22:00;;;;;;;27.98;15.00;;;6.10;99.90;;;;;;7597495;19;20018;-76
2024/02/18 07:24:32;;;;;;;26.45;14.60;;;6.20;99.90;;;;;;7584848;19;20018;-76
2024/02/18 07:27:04;;;;;;;32.35;16.52;;;6.40;99.90;;;;;;7606359;19;20014;-76
2024/02/18 07:29:37;;;;;;;29.25;17.08;;;6.50;99.90;;;;;;7593362;19;20023;-76
2024/02/18 07:32:09;;;;;;;28.95;15.63;;;6.50;99.90;;;;;;7618328;19;20553;-75
2024/02/18 07:34:41;;;;;;;33.75;17.02;;;6.70;99.90;;;;;;7616325;19;20035;-75
2024/02/18 07:37:13;;;;;;;28.25;16.05;;;6.70;99.90;;;;;;7596462;19;20207;-75
2024/02/18 07:39:46;;;;;;;31.25;17.08;;;6.90;99.90;;;;;;7619151;19;20781;-75
2024/02/18 07:42:18;;;;;;;30.60;16.58;;;6.80;99.90;;;;;;7615718;19;20060;-75
2024/02/18 07:44:50;;;;;;;28.58;16.08;;;6.90;99.90;;;;;;7621647;19;20078;-75
2024/02/18 07:47:22;;;;;;;32.45;16.50;;;6.90;99.90;;;;;;7613149;19;21462;-75
2024/02/18 07:49:55;;;;;;;33.25;16.90;;;7.00;99.90;;;;;;7620854;19;20018;-74
2024/02/18 07:52:27;;;;;;;30.83;16.10;;;7.10;99.90;;;;;;7612721;19;20028;-75
2024/02/18 07:55:00;;;;;;;34.20;15.48;;;7.30;99.90;;;;;;7623039;19;20022;-75
2024/02/18 07:57:32;;;;;;;31.60;15.73;;;7.40;99.90;;;;;;7615158;19;20046;-75
2024/02/18 08:00:05;;;;;;;32.22;17.40;;;7.50;99.90;;;;;;7614239;19;20677;-74
2024/02/18 08:02:38;;;;;;;29.00;16.40;;;7.70;99.90;;;;;;7621445;19;20067;-75
2024/02/18 08:05:10;;;;;;;35.05;17.80;;;7.70;99.90;;;;;;7612788;19;20022;-75
2024/02/18 08:07:43;;;;;;;31.45;16.58;;;7.70;99.90;;;;;;7579386;19;20094;-75
2024/02/18 08:10:15;;;;;;;29.95;15.88;;;7.70;99.90;;;;;;7620085;19;20018;-75
2024/02/18 08:12:47;;;;;;;24.85;14.02;;;7.90;99.90;;;;;;7616776;19;20019;-75
2024/02/18 08:15:24;;;;;;;31.75;15.00;;;8.10;99.90;;;;;;7614231;19;20014;-74
2024/02/18 08:17:56;;;;;;;31.63;16.40;;;8.20;99.90;;;;;;7620133;19;20043;-75
2024/02/18 08:20:29;;;;;;;28.58;15.18;;;8.40;99.90;;;;;;7623867;19;20043;-74
2024/02/18 08:23:01;;;;;;;32.42;16.92;;;8.50;99.90;;;;;;7623144;19;20372;-74
2024/02/18 08:25:33;;;;;;;34.28;15.55;;;8.60;99.90;;;;;;7622677;19;21106;-74
2024/02/18 08:28:05;;;;;;;32.13;17.05;;;8.60;99.90;;;;;;7622397;19;20501;-74
2024/02/18 08:30:37;;;;;;;34.83;17.27;;;8.70;99.90;;;;;;7623965;19;20023;-74
2024/02/18 08:33:10;;;;;;;30.30;15.50;;;8.80;99.90;;;;;;7626050;19;20021;-74
2024/02/18 08:35:42;;;;;;;30.90;16.35;;;8.80;99.90;;;;;;7624800;19;20022;-74
2024/02/18 08:38:14;;;;;;;30.67;15.65;;;8.90;99.90;;;;;;7624078;19;20125;-75
2024/02/18 08:40:46;;;;;;;29.55;15.70;;;9.00;99.90;;;;;;7623152;19;20044;-74
2024/02/18 08:43:19;;;;;;;28.65;15.90;;;9.00;99.90;;;;;;7632073;19;20097;-74
2024/02/18 08:45:51;;;;;;;29.15;15.60;;;8.90;99.90;;;;;;7650448;19;20022;-74
2024/02/18 08:48:23;;;;;;;25.17;14.48;;;8.90;99.90;;;;;;7651703;19;20027;-74
2024/02/18 08:50:55;;;;;;;26.08;13.98;;;8.90;99.90;;;;;;7641309;19;20420;-74
2024/02/18 08:53:28;;;;;;;27.90;14.07;;;9.10;99.90;;;;;;7643952;19;20006;-74
2024/02/18 08:56:00;;;;;;;23.98;13.73;;;9.10;99.90;;;;;;7637449;19;20022;-74
2024/02/18 08:58:32;;;;;;;27.00;13.47;;;9.10;99.90;;;;;;7626486;19;20014;-73
2024/02/18 09:01:05;;;;;;;26.27;13.85;;;9.10;99.90;;;;;;7636441;19;20015;-74
2024/02/18 09:03:37;;;;;;;32.78;14.45;;;9.20;99.90;;;;;;7627549;19;20023;-74
2024/02/18 09:06:10;;;;;;;31.00;15.13;;;9.30;99.90;;;;;;7622732;19;20029;-73
2024/02/18 09:08:42;;;;;;;30.63;16.10;;;9.30;99.90;;;;;;7627841;19;20015;-73
2024/02/18 09:11:15;;;;;;;28.17;15.13;;;9.30;99.90;;;;;;7631052;19;20014;-73
2024/02/18 09:13:47;;;;;;;29.15;15.60;;;9.30;99.90;;;;;;7621129;19;20748;-74
2024/02/18 09:16:19;;;;;;;29.27;15.02;;;9.40;99.90;;;;;;7614996;19;20603;-74
2024/02/18 09:18:52;;;;;;;33.58;16.95;;;9.40;99.90;;;;;;7626333;19;20077;-73
2024/02/18 09:21:24;;;;;;;34.95;17.40;;;9.50;99.90;;;;;;7604317;19;21132;-73
2024/02/18 09:23:57;;;;;;;32.83;17.42;;;9.50;99.90;;;;;;7581645;19;20010;-75
2024/02/18 09:26:29;;;;;;;37.00;17.73;;;9.50;99.90;;;;;;7623705;19;20018;-75
2024/02/18 09:29:01;;;;;;;31.15;16.52;;;9.60;99.90;;;;;;7616507;19;20897;-75
2024/02/18 09:31:37;;;;;;;32.05;16.70;;;9.60;99.90;;;;;;7618638;19;20504;-75
2024/02/18 09:34:10;;;;;;;34.08;17.55;;;9.70;99.90;;;;;;7608446;19;20014;-74
2024/02/18 09:36:43;;;;;;;31.45;16.13;;;9.80;99.90;;;;;;7593317;19;20082;-76
2024/02/18 09:39:16;;;;;;;36.75;16.60;;;9.90;99.90;;;;;;7584407;19;20018;-74
2024/02/18 09:41:51;;;;;;;31.70;16.85;;;9.90;99.90;;;;;;7582343;19;20025;-75
2024/02/18 09:44:27;;;;;;;26.33;14.15;;;9.90;99.90;;;;;;7608615;19;20017;-76
2024/02/18 09:47:05;;;;;;;24.67;13.32;;;9.90;99.90;;;;;;7600193;19;20030;-74
2024/02/18 09:49:38;;;;;;;24.70;13.57;;;9.90;99.90;;;;;;7615323;19;20011;-75
2024/02/18 09:52:13;;;;;;;24.08;13.45;;;10.00;99.90;;;;;;7605103;19;20162;-75
2024/02/18 09:54:46;;;;;;;21.27;12.90;;;10.00;99.90;;;;;;7609268;19;20868;-75
2024/02/18 09:57:18;;;;;;;24.45;13.90;;;10.00;99.90;;;;;;7599154;19;20011;-76
2024/02/18 09:59:51;;;;;;;25.52;13.60;;;10.00;99.90;;;;;;7610010;19;20476;-77
2024/02/18 10:02:27;;;;;;;27.90;13.23;;;10.10;99.90;;;;;;7605171;19;20006;-76
2024/02/18 10:05:00;;;;;;;20.90;11.48;;;10.20;99.90;;;;;;7601217;19;20085;-76
2024/02/18 10:07:33;;;;;;;22.23;11.97;;;10.40;99.90;;;;;;7584838;19;20096;-76
2024/02/18 10:10:07;;;;;;;21.90;11.93;;;10.40;99.90;;;;;;7603054;19;20038;-76
2024/02/18 10:12:41;;;;;;;22.52;12.55;;;10.30;99.90;;;;;;7566258;19;20014;-75
2024/02/18 10:15:16;;;;;;;23.83;12.43;;;10.40;99.90;;;;;;7566991;19;21483;-76
2024/02/18 10:17:49;;;;;;;20.60;11.27;;;10.30;99.90;;;;;;7580732;19;20046;-74
2024/02/18 10:20:21;;;;;;;19.85;10.73;;;10.40;99.90;;;;;;7581872;19;20022;-75
2024/02/18 10:22:54;;;;;;;22.58;11.80;;;10.40;99.90;;;;;;7569433;19;20056;-76
2024/02/18 10:25:27;;;;;;;19.33;11.00;;;10.50;99.90;;;;;;7578523;19;20014;-77
2024/02/18 10:28:00;;;;;;;21.98;11.80;;;10.60;99.90;;;;;;7618122;19;20283;-79
2024/02/18 10:30:33;;;;;;;28.63;12.30;;;10.70;99.90;;;;;;7609389;19;20018;-79
2024/02/18 10:33:05;;;;;;;21.00;11.82;;;10.80;99.90;;;;;;7605168;19;20293;-78
2024/02/18 10:35:37;;;;;;;21.95;11.88;;;10.80;99.90;;;;;;7615010;19;20041;-75
2024/02/18 10:38:20;;;;;;;23.95;12.30;;;10.80;99.90;;;;;;7613510;19;20011;-78
2024/02/18 10:41:07;;;;;;;19.75;11.05;;;10.80;99.90;;;;;;7622999;19;20022;-82
2024/02/18 10:43:50;;;;;;;22.55;11.10;;;10.90;99.90;;;;;;7620647;19;20019;-80
2024/02/18 10:46:24;;;;;;;16.20;9.43;;;11.00;99.90;;;;;;7619993;19;20020;-78
2024/02/18 10:49:10;;;;;;;16.50;9.10;;;11.00;99.90;;;;;;7625135;19;20018;-80
2024/02/18 10:51:49;;;;;;;16.83;9.68;;;11.20;99.90;;;;;;7626610;19;20082;-80
2024/02/18 10:54:36;;;;;;;16.27;9.43;;;11.30;99.90;;;;;;7611106;19;20014;-82
2024/02/18 10:57:11;;;;;;;14.25;8.57;;;11.30;99.90;;;;;;7620826;19;20554;-80
2024/02/18 11:00:03;;;;;;;14.18;8.13;;;11.50;99.90;;;;;;7618443;19;20022;-79
2024/02/18 11:02:58;;;;;;;16.38;8.95;;;11.60;99.90;;;;;;7619887;19;20011;-81
2024/02/18 11:05:35;;;;;;;18.20;9.98;;;11.60;99.90;;;;;;7609353;19;20406;-82
2024/02/18 11:08:10;;;;;;;18.48;9.35;;;11.70;99.90;;;;;;7617634;19;20363;-80
2024/02/18 11:10:45;;;;;;;18.08;9.23;;;11.80;99.90;;;;;;7613465;19;20800;-82
2024/02/18 11:13:20;;;;;;;16.05;8.35;;;11.90;99.90;;;;;;7617055;19;20026;-79
2024/02/18 11:15:53;;;;;;;17.40;9.90;;;11.80;99.90;;;;;;7607035;19;20022;-82
2024/02/18 11:18:27;;;;;;;13.98;8.27;;;11.90;99.90;;;;;;7619492;19;20773;-81
2024/02/18 11:21:00;;;;;;;12.73;7.78;;;12.00;99.90;;;;;;7622272;19;20055;-80
2024/02/18 11:23:34;;;;;;;11.68;6.57;;;12.10;99.90;;;;;;7597340;19;20014;-79
2024/02/18 11:26:07;;;;;;;15.55;8.73;;;12.20;99.90;;;;;;7607627;19;20053;-76
2024/02/18 11:28:40;;;;;;;13.90;8.63;;;12.30;99.90;;;;;;7568069;19;20022;-77
2024/02/18 11:31:27;;;;;;;15.35;9.25;;;12.40;99.90;;;;;;7600108;19;20053;-77
2024/02/18 11:33:59;;;;;;;14.05;9.25;;;12.40;99.90;;;;;;7592564;19;20274;-75
2024/02/18 11:36:33;;;;;;;13.07;7.53;;;12.60;99.90;;;;;;7602058;19;20018;-77
2024/02/18 11:39:07;;;;;;;13.10;7.60;;;12.70;99.90;;;;;;7607075;19;20017;-77
2024/02/18 11:41:39;;;;;;;17.25;7.68;;;12.90;99.90;;;;;;7592207;19;20658;-77
2024/02/18 11:44:14;;;;;;;13.45;7.72;;;13.20;99.90;;;;;;7601672;19;20011;-77
2024/02/18 11:46:49;;;;;;;10.40;7.70;;;13.70;99.90;;;;;;7582388;19;20002;-77
2024/02/18 11:49:23;;;;;;;12.15;7.22;;;15.00;99.90;;;;;;7576165;19;20010;-77
2024/02/18 11:51:56;;;;;;;12.65;8.38;;;16.90;99.80;;;;;;7590966;19;20014;-76
2024/02/18 11:54:28;;;;;;;13.85;8.63;;;18.30;97.10;;;;;;7601720;19;20035;-77
2024/02/18 11:57:01;;;;;;;18.65;8.65;;;19.60;93.30;;;;;;7617941;19;20046;-76
2024/02/18 11:59:34;;;;;;;14.23;7.95;;;20.30;92.70;;;;;;7614835;19;20011;-74
2024/02/18 12:02:07;;;;;;;14.43;7.88;;;20.30;87.50;;;;;;7612030;19;20025;-74
2024/02/18 12:04:40;;;;;;;12.02;8.13;;;18.20;88.70;;;;;;7595842;19;20079;-75
2024/02/18 12:07:16;;;;;;;11.75;7.93;;;18.50;91.40;;;;;;7606733;19;20606;-76
2024/02/18 12:09:49;;;;;;;12.70;8.50;;;19.40;87.30;;;;;;7627450;19;20047;-76
2024/02/18 12:12:22;;;;;;;10.80;7.78;;;20.80;84.60;;;;;;7598769;19;20011;-77
2024/02/18 12:14:55;;;;;;;13.05;7.38;;;21.70;80.80;;;;;;7589908;19;20010;-75
2024/02/18 12:17:27;;;;;;;12.68;7.28;;;22.30;75.40;;;;;;7593303;19;20029;-77
2024/02/18 12:20:01;;;;;;;15.98;8.05;;;22.30;74.40;;;;;;7594709;19;20022;-76
2024/02/18 12:22:33;;;;;;;13.10;7.85;;;19.80;76.70;;;;;;7590880;19;20096;-77
2024/02/18 12:25:11;;;;;;;11.70;7.38;;;18.00;83.80;;;;;;7603994;19;20097;-76
2024/02/18 12:27:44;;;;;;;13.00;7.93;;;17.30;87.50;;;;;;7603701;19;20014;-77
2024/02/18 12:30:22;;;;;;;10.88;7.18;;;16.30;88.00;;;;;;7603294;19;20648;-76
2024/02/18 12:32:55;;;;;;;;;;;15.60;91.10;;;;;;7601795;19;20026;-76
2024/02/18 12:35:35;;;;;;;10.25;6.28;;;15.50;91.60;;;;;;7591272;19;19919;-76
2024/02/18 12:38:09;;;;;;;12.55;7.18;;;15.40;92.20;;;;;;7603728;19;20815;-77
2024/02/18 12:40:42;;;;;;;10.60;7.20;;;15.20;93.10;;;;;;7593142;19;20011;-75
2024/02/18 12:43:16;;;;;;;10.48;6.97;;;15.00;93.30;;;;;;7637507;19;20039;-74
2024/02/18 12:46:09;;;;;;;;;;;14.90;93.80;;;;;;7605377;19;20014;-73
2024/02/18 12:48:42;;;;;;;7.47;4.82;;;14.70;93.90;;;;;;7563954;19;19958;-74
2024/02/18 12:51:15;;;;;;;10.03;5.17;;;14.80;92.50;;;;;;7602530;19;20010;-74
2024/02/18 12:53:48;;;;;;;7.95;5.35;;;14.80;91.90;;;;;;7603521;19;20048;-76
2024/02/18 12:56:20;;;;;;;7.25;4.40;;;14.50;92.60;;;;;;7607278;19;20366;-76
2024/02/18 12:58:53;;;;;;;7.10;4.33;;;14.50;93.10;;;;;;7602649;19;20194;-77
2024/02/18 13:01:25;;;;;;;9.60;4.95;;;14.50;93.00;;;;;;7594368;19;20301;-76
2024/02/18 13:03:59;;;;;;;6.30;4.03;;;14.50;92.10;;;;;;7611523;19;20015;-75
2024/02/18 13:06:33;;;;;;;7.00;4.38;;;14.50;90.70;;;;;;7615664;19;20062;-75
2024/02/18 13:09:06;;;;;;;6.93;4.75;;;14.70;91.90;;;;;;7600061;19;20022;-75